Time;durP1;ratioP1;P1;durP2;ratioP2;P2;SDS_P1;SDS_P2;PMS_P1;PMS_P2;Temp;Humidity;BMP_temperature;BMP_pressure;BME280_temperature;BME280_humidity;BME280_pressure;Samples;Min_cycle;Max_cycle;Signal;HPM_P1;HPM_P2
2022/12/02 16:26:46;;;;;;;5.47;4.97;;;14.70;99.90;;;;;;5067821;27;20619;-56
2022/12/02 16:29:13;;;;;;;5.53;3.80;;;12.50;99.90;;;;;;5067964;28;20467;-53
2022/12/02 16:31:40;;;;;;;8.63;4.90;;;12.70;99.90;;;;;;5067230;28;20456;-55
2022/12/02 16:34:09;;;;;;;5.90;5.47;;;13.80;99.90;;;;;;5068479;28;20463;-56
2022/12/02 16:36:40;;;;;;;5.20;4.47;;;12.60;99.90;;;;;;5067494;28;20481;-54
2022/12/02 16:39:08;;;;;;;5.60;3.50;;;12.70;99.90;;;;;;5061453;28;20448;-54
2022/12/02 16:41:36;;;;;;;5.33;4.80;;;13.40;99.90;;;;;;5061973;28;20445;-55
2022/12/02 16:44:05;;;;;;;4.10;3.80;;;;;;;;;;5066389;28;20449;-54
2022/12/02 16:46:32;;;;;;;5.50;5.00;;;14.30;99.90;;;;;;5064097;28;20492;-53
2022/12/02 16:49:00;;;;;;;6.10;5.57;;;13.30;99.90;;;;;;5066957;28;20539;-55
2022/12/02 16:51:27;;;;;;;5.50;5.00;;;13.60;99.90;;;;;;5069107;28;20506;-56
2022/12/02 16:53:54;;;;;;;5.00;4.60;;;14.20;99.90;;;;;;5061745;28;20460;-59
2022/12/02 16:56:22;;;;;;;5.97;5.47;;;13.70;99.90;;;;;;5067303;28;20479;-52
2022/12/02 16:58:49;;;;;;;5.53;5.03;;;14.20;99.90;;;;;;5069272;28;20452;-56
2022/12/02 17:01:18;;;;;;;5.50;4.30;;;12.70;99.90;;;;;;5069252;28;20866;-57
2022/12/02 17:03:45;;;;;;;6.50;5.50;;;12.40;99.90;;;;;;5068772;28;20463;-57
2022/12/02 17:06:13;;;;;;;5.80;5.30;;;12.20;99.90;;;;;;5068124;28;20561;-52
2022/12/02 17:08:40;;;;;;;6.47;5.43;;;13.10;99.90;;;;;;5069445;28;20449;-51
2022/12/02 17:11:08;;;;;;;3.40;3.03;;;13.60;99.90;;;;;;5069547;28;20452;-55
2022/12/02 17:13:35;;;;;;;4.03;3.73;;;14.00;99.90;;;;;;5068766;28;20478;-53
2022/12/02 17:16:02;;;;;;;4.33;3.93;;;15.20;99.90;;;;;;5067467;28;20517;-58
2022/12/02 17:18:31;;;;;;;15.70;10.83;;;15.40;99.90;;;;;;5061507;28;20465;-57
2022/12/02 17:20:58;;;;;;;46.17;21.43;;;15.50;99.90;;;;;;5060114;28;20468;-55
2022/12/02 17:23:26;;;;;;;15.07;9.47;;;15.00;99.90;;;;;;5060244;28;20848;-62
2022/12/02 17:25:53;;;;;;;61.63;27.57;;;15.20;99.90;;;;;;5054400;28;20863;-58
2022/12/02 17:28:21;;;;;;;11.43;7.60;;;15.00;99.90;;;;;;5057034;28;20467;-56
2022/12/02 17:30:48;;;;;;;87.50;36.67;;;15.50;99.90;;;;;;5061711;28;20464;-62
2022/12/02 17:33:16;;;;;;;36.07;18.50;;;14.70;99.90;;;;;;5063282;28;20453;-59
2022/12/02 17:35:45;;;;;;;13.80;9.60;;;15.80;99.90;;;;;;5059856;28;20486;-61
2022/12/02 17:38:12;;;;;;;28.93;16.67;;;14.90;99.90;;;;;;5044901;28;20464;-54
2022/12/02 17:40:40;;;;;;;7.63;6.93;;;15.00;99.90;;;;;;5047791;28;20912;-60
2022/12/02 17:43:07;;;;;;;44.13;20.07;;;13.00;99.90;;;;;;5045157;28;20722;-59
2022/12/02 17:45:35;;;;;;;18.27;9.87;;;13.80;99.90;;;;;;5047563;28;20852;-57
2022/12/02 17:48:02;;;;;;;10.93;6.40;;;14.80;99.90;;;;;;5049892;28;20487;-57
2022/12/02 17:50:29;;;;;;;7.47;6.70;;;13.50;99.90;;;;;;5053986;28;20863;-58
2022/12/02 17:52:58;;;;;;;15.40;9.90;;;12.70;99.90;;;;;;5043721;28;20454;-55
2022/12/02 17:55:26;;;;;;;7.67;6.80;;;12.10;99.90;;;;;;5050230;28;20499;-55
2022/12/02 17:57:53;;;;;;;9.07;6.80;;;12.90;99.90;;;;;;5053410;28;20441;-56
2022/12/02 18:00:21;;;;;;;13.90;8.40;;;12.00;99.90;;;;;;5047743;28;20540;-58
2022/12/02 18:02:48;;;;;;;7.13;5.80;;;12.70;99.90;;;;;;5051896;28;20438;-65
2022/12/02 18:05:16;;;;;;;6.57;5.53;;;13.00;99.90;;;;;;5053217;28;20485;-56
2022/12/02 18:07:43;;;;;;;11.77;6.10;;;14.00;99.90;;;;;;5053241;28;20519;-64
2022/12/02 18:10:12;;;;;;;5.00;4.60;;;13.60;99.90;;;;;;5053522;28;20475;-64
2022/12/02 18:12:39;;;;;;;5.60;5.10;;;14.10;99.90;;;;;;5051257;28;20460;-60
2022/12/02 18:15:09;;;;;;;8.70;6.57;;;14.00;99.90;;;;;;5051475;28;20552;-62
2022/12/02 18:17:36;;;;;;;9.17;5.33;;;12.50;99.90;;;;;;5049852;28;20453;-54
2022/12/02 18:20:04;;;;;;;6.17;5.60;;;12.20;99.90;;;;;;5044423;28;20457;-64
2022/12/02 18:22:32;;;;;;;7.73;5.40;;;;;;;;;;5048623;28;20820;-59
2022/12/02 18:24:59;;;;;;;11.60;6.13;;;10.90;99.90;;;;;;5049434;28;21021;-54
2022/12/02 18:27:28;;;;;;;7.60;5.57;;;9.90;99.90;;;;;;5052098;28;20453;-60
2022/12/02 18:29:57;;;;;;;6.40;5.90;;;10.10;99.90;;;;;;5052604;28;20932;-57
2022/12/02 18:32:24;;;;;;;6.07;5.47;;;9.30;99.90;;;;;;5050806;28;20460;-61
2022/12/02 18:34:52;;;;;;;7.10;6.17;;;;;;;;;;5053091;28;20457;-60
2022/12/02 18:37:19;;;;;;;6.73;6.13;;;;;;;;;;5052968;28;20459;-60
2022/12/02 18:39:47;;;;;;;6.63;5.93;;;6.70;99.90;;;;;;5053465;28;20449;-60
2022/12/02 18:42:14;;;;;;;6.27;5.67;;;6.60;99.90;;;;;;5053109;28;20929;-60
2022/12/02 18:44:43;;;;;;;6.60;6.00;;;6.40;99.90;;;;;;5052151;28;20821;-60
2022/12/02 18:47:10;;;;;;;6.70;6.10;;;5.70;99.90;;;;;;5051220;28;21204;-61
2022/12/02 18:49:38;;;;;;;6.67;6.07;;;5.40;99.90;;;;;;5051161;28;20507;-61
2022/12/02 18:52:05;;;;;;;7.60;6.80;;;5.40;99.90;;;;;;5053089;28;20472;-60
2022/12/02 18:54:32;;;;;;;7.43;6.40;;;5.10;99.90;;;;;;5054010;28;20480;-60
2022/12/02 18:57:00;;;;;;;7.20;6.50;;;5.20;99.90;;;;;;5054309;28;20865;-60
2022/12/02 18:59:27;;;;;;;7.00;6.40;;;5.10;99.90;;;;;;5054686;28;20448;-59
2022/12/02 19:01:57;;;;;;;8.23;7.40;;;5.10;99.90;;;;;;5054559;28;20843;-61
2022/12/02 19:04:24;;;;;;;7.20;6.60;;;5.00;99.90;;;;;;5054443;28;20449;-60
2022/12/02 19:06:51;;;;;;;6.93;6.07;;;5.10;99.90;;;;;;5053853;28;20489;-60
2022/12/02 19:09:19;;;;;;;6.63;5.83;;;;;;;;;;5054184;28;20529;-59
2022/12/02 19:11:46;;;;;;;6.73;5.70;;;;;;;;;;5054316;28;20876;-60
2022/12/02 19:14:14;;;;;;;8.63;6.00;;;;;;;;;;5054198;28;20510;-60
2022/12/02 19:16:41;;;;;;;7.67;6.27;;;;;;;;;;5054163;28;20552;-60
2022/12/02 19:19:10;;;;;;;7.57;6.50;;;5.10;99.90;;;;;;5054093;28;21001;-60
2022/12/02 19:21:38;;;;;;;9.23;6.97;;;4.80;99.90;;;;;;5054131;28;20460;-60
2022/12/02 19:24:05;;;;;;;9.33;8.40;;;4.80;99.90;;;;;;5053758;28;20480;-59
2022/12/02 19:26:32;;;;;;;8.90;6.03;;;4.90;99.90;;;;;;5053450;28;20485;-59
2022/12/02 19:29:00;;;;;;;6.90;6.30;;;4.90;99.90;;;;;;5053525;28;20453;-60
2022/12/02 19:31:27;;;;;;;10.10;6.50;;;4.90;99.90;;;;;;5053752;28;21010;-60
2022/12/02 19:33:54;;;;;;;8.17;7.07;;;4.80;99.90;;;;;;5053564;28;20495;-60
2022/12/02 19:36:23;;;;;;;6.63;6.10;;;4.80;99.90;;;;;;5053636;28;20491;-60
2022/12/02 19:38:51;;;;;;;6.27;5.67;;;4.70;99.90;;;;;;5053522;28;20499;-60
2022/12/02 19:41:18;;;;;;;8.23;6.60;;;4.60;99.90;;;;;;5053875;28;20481;-60
2022/12/02 19:43:45;;;;;;;6.87;5.80;;;4.60;99.90;;;;;;5053694;28;20441;-59
2022/12/02 19:46:13;;;;;;;6.27;5.67;;;4.70;99.90;;;;;;5053290;28;20551;-60
2022/12/02 19:48:40;;;;;;;6.90;6.20;;;4.70;99.90;;;;;;5053354;28;20446;-60
2022/12/02 19:51:07;;;;;;;7.90;7.10;;;4.80;99.90;;;;;;5053457;28;20449;-60
2022/12/02 19:53:36;;;;;;;8.63;6.80;;;4.90;99.90;;;;;;5053645;28;20453;-60
2022/12/02 19:56:04;;;;;;;8.10;6.87;;;4.90;99.90;;;;;;5053657;28;20484;-60
2022/12/02 19:58:31;;;;;;;10.10;8.20;;;4.80;99.90;;;;;;5053093;28;20948;-60
2022/12/02 20:00:59;;;;;;;8.83;7.93;;;4.80;99.90;;;;;;5053180;28;20966;-60
2022/12/02 20:03:26;;;;;;;8.97;8.00;;;4.70;99.90;;;;;;5053454;28;20450;-60
2022/12/02 20:05:54;;;;;;;7.37;6.67;;;4.70;99.90;;;;;;5053100;28;20535;-60
2022/12/02 20:08:21;;;;;;;8.00;6.97;;;4.70;99.90;;;;;;5053296;28;20457;-61
2022/12/02 20:10:50;;;;;;;9.23;7.20;;;4.60;99.90;;;;;;5053036;28;20588;-60
2022/12/02 20:13:17;;;;;;;8.23;7.00;;;4.60;99.90;;;;;;5053079;28;20451;-60
2022/12/02 20:15:45;;;;;;;8.53;7.73;;;4.60;99.90;;;;;;5052919;28;20503;-60
2022/12/02 20:18:12;;;;;;;7.80;7.03;;;4.60;99.90;;;;;;5052859;28;20446;-60
2022/12/02 20:20:40;;;;;;;8.00;7.20;;;4.60;99.90;;;;;;5052917;28;20982;-60
2022/12/02 20:23:07;;;;;;;8.03;7.07;;;4.60;99.90;;;;;;5052991;28;20449;-61
2022/12/02 20:25:34;;;;;;;10.30;7.97;;;4.80;99.90;;;;;;5052462;28;20489;-61
2022/12/02 20:28:03;;;;;;;9.43;8.53;;;4.90;99.90;;;;;;5052968;28;20997;-60
2022/12/02 20:30:31;;;;;;;12.63;9.77;;;4.80;99.90;;;;;;5053137;28;20459;-60
2022/12/02 20:32:58;;;;;;;12.83;11.37;;;4.90;99.90;;;;;;5053005;28;20467;-60
2022/12/02 20:35:25;;;;;;;12.10;10.83;;;4.90;99.90;;;;;;5052751;28;20499;-60
2022/12/02 20:37:53;;;;;;;11.33;8.90;;;4.90;99.90;;;;;;5053425;28;20445;-60
2022/12/02 20:40:20;;;;;;;10.40;9.30;;;4.90;99.90;;;;;;5053084;28;20457;-60
2022/12/02 20:42:48;;;;;;;11.10;9.30;;;4.70;99.90;;;;;;5053154;28;20453;-60
2022/12/02 20:45:17;;;;;;;10.17;7.87;;;4.70;99.90;;;;;;5052920;28;20473;-60
2022/12/02 20:47:44;;;;;;;11.17;9.33;;;4.90;99.90;;;;;;5052736;28;21005;-60
2022/12/02 20:50:12;;;;;;;8.43;7.63;;;4.80;99.90;;;;;;5052664;28;20936;-60
2022/12/02 20:52:39;;;;;;;10.37;8.73;;;4.80;99.90;;;;;;5053152;28;20457;-60
2022/12/02 20:55:08;;;;;;;8.97;8.17;;;4.80;99.90;;;;;;5052894;28;20473;-60
2022/12/02 20:57:35;;;;;;;8.93;8.03;;;4.80;99.90;;;;;;5053017;28;20828;-60
2022/12/02 21:00:04;;;;;;;8.93;8.00;;;4.90;99.90;;;;;;5052572;28;20928;-60
2022/12/02 21:02:33;;;;;;;9.53;8.53;;;4.80;99.90;;;;;;5052603;28;20465;-60
2022/12/02 21:05:00;;;;;;;8.93;8.00;;;4.90;99.90;;;;;;5052453;28;20460;-60
2022/12/02 21:07:28;;;;;;;10.27;9.27;;;4.90;99.90;;;;;;5052834;28;20477;-60
2022/12/02 21:09:55;;;;;;;11.00;8.80;;;4.80;99.90;;;;;;5052771;28;20502;-60
2022/12/02 21:12:22;;;;;;;11.33;8.07;;;4.80;99.90;;;;;;5054610;28;20448;-60
2022/12/02 21:14:50;;;;;;;10.40;8.23;;;4.80;99.90;;;;;;5056160;28;20453;-61
2022/12/02 21:17:17;;;;;;;10.97;8.80;;;4.80;99.90;;;;;;5056667;28;20464;-60
2022/12/02 21:19:46;;;;;;;8.77;7.90;;;4.90;99.90;;;;;;5056206;28;20445;-60
2022/12/02 21:22:13;;;;;;;8.70;7.77;;;4.90;99.90;;;;;;5056575;28;20453;-60
2022/12/02 21:24:41;;;;;;;11.40;9.23;;;4.90;99.90;;;;;;5056142;28;20481;-60
2022/12/02 21:27:08;;;;;;;10.07;7.93;;;5.00;99.90;;;;;;5056297;28;20511;-60
2022/12/02 21:29:35;;;;;;;10.27;7.73;;;5.00;99.90;;;;;;5056095;28;20804;-59
2022/12/02 21:32:03;;;;;;;10.63;9.40;;;5.00;99.90;;;;;;5056159;28;20531;-59
2022/12/02 21:34:30;;;;;;;10.50;9.50;;;5.00;99.90;;;;;;5056333;28;20507;-60
2022/12/02 21:36:59;;;;;;;9.60;8.63;;;5.00;99.90;;;;;;5056011;28;20461;-60
2022/12/02 21:39:26;;;;;;;10.03;8.80;;;5.00;99.90;;;;;;5056257;28;20480;-60
2022/12/02 21:41:54;;;;;;;9.27;8.33;;;5.00;99.90;;;;;;5055801;28;20544;-60
2022/12/02 21:44:22;;;;;;;11.03;9.10;;;5.00;99.90;;;;;;5056152;28;20445;-60
2022/12/02 21:46:49;;;;;;;10.90;9.80;;;5.00;99.90;;;;;;5055571;28;20517;-60
2022/12/02 21:49:16;;;;;;;10.77;9.70;;;5.00;99.90;;;;;;5055964;28;20495;-60
2022/12/02 21:51:44;;;;;;;12.87;10.43;;;5.00;99.90;;;;;;5055675;28;20821;-60
2022/12/02 21:54:13;;;;;;;11.27;10.07;;;5.00;99.90;;;;;;5055924;28;20927;-60
2022/12/02 21:56:40;;;;;;;14.30;11.53;;;4.90;99.90;;;;;;5055641;28;20476;-59
2022/12/02 21:59:07;;;;;;;14.30;11.13;;;4.90;99.90;;;;;;5055813;28;20457;-59
2022/12/02 22:01:38;;;;;;;12.50;11.10;;;4.90;99.90;;;;;;5055730;28;20498;-59
2022/12/02 22:04:05;;;;;;;17.10;12.60;;;4.90;99.90;;;;;;5055816;28;20429;-60
2022/12/02 22:06:33;;;;;;;17.90;13.93;;;4.90;99.90;;;;;;5055145;28;20990;-60
2022/12/02 22:09:00;;;;;;;14.83;11.50;;;4.80;99.90;;;;;;5055459;28;20457;-60
2022/12/02 22:11:29;;;;;;;13.80;10.70;;;4.80;99.90;;;;;;5055446;28;20519;-60
2022/12/02 22:13:56;;;;;;;15.37;12.70;;;4.90;99.90;;;;;;5055595;28;20793;-59
2022/12/02 22:16:24;;;;;;;17.10;12.67;;;4.90;99.90;;;;;;5055338;28;20874;-59
2022/12/02 22:18:51;;;;;;;14.77;13.23;;;4.80;99.90;;;;;;5055180;28;20454;-59
2022/12/02 22:21:19;;;;;;;16.17;11.87;;;4.80;99.90;;;;;;5055029;28;20445;-59
2022/12/02 22:23:46;;;;;;;14.73;12.83;;;4.80;99.90;;;;;;5055024;28;20449;-59
2022/12/02 22:26:14;;;;;;;19.47;14.43;;;4.90;99.90;;;;;;5054572;28;20850;-59
2022/12/02 22:28:42;;;;;;;15.53;13.40;;;5.00;99.90;;;;;;5055057;28;20452;-60
2022/12/02 22:31:10;;;;;;;15.60;12.53;;;4.90;99.90;;;;;;5054837;28;20460;-60
2022/12/02 22:33:37;;;;;;;18.33;14.13;;;4.90;99.90;;;;;;5055289;28;20524;-59
2022/12/02 22:36:05;;;;;;;19.00;14.30;;;4.90;99.90;;;;;;5054694;28;20465;-60
2022/12/02 22:38:32;;;;;;;15.57;13.87;;;4.90;99.90;;;;;;5054896;28;20441;-60
2022/12/02 22:41:00;;;;;;;20.27;14.67;;;4.80;99.90;;;;;;5054784;28;20928;-60
2022/12/02 22:43:27;;;;;;;21.50;15.20;;;4.90;99.90;;;;;;5054762;28;20583;-60
2022/12/02 22:45:56;;;;;;;20.87;14.33;;;4.80;99.90;;;;;;5055001;28;20526;-59
2022/12/02 22:48:23;;;;;;;18.47;15.30;;;4.70;99.90;;;;;;5054918;28;20530;-60
2022/12/02 22:50:51;;;;;;;15.97;14.27;;;4.70;99.90;;;;;;5054939;28;20450;-60
2022/12/02 22:53:18;;;;;;;20.33;15.30;;;4.70;99.90;;;;;;5054487;28;20442;-60
2022/12/02 22:55:45;;;;;;;20.00;14.80;;;4.70;99.90;;;;;;5054798;28;20484;-60
2022/12/02 22:58:13;;;;;;;22.37;15.67;;;4.70;99.90;;;;;;5054664;28;20549;-60
2022/12/02 23:00:40;;;;;;;22.20;15.97;;;4.70;99.90;;;;;;5054734;28;20445;-60
2022/12/02 23:03:09;;;;;;;21.03;15.57;;;4.70;99.90;;;;;;5054197;28;20468;-60
2022/12/02 23:05:36;;;;;;;19.40;14.73;;;4.70;99.90;;;;;;5054452;28;20484;-60
2022/12/02 23:08:05;;;;;;;20.77;15.60;;;4.60;99.90;;;;;;5054031;28;20485;-60
2022/12/02 23:10:34;;;;;;;25.57;17.10;;;4.50;99.90;;;;;;5054222;28;20937;-60
2022/12/02 23:13:02;;;;;;;20.83;16.10;;;4.40;99.90;;;;;;5054320;28;20491;-60
2022/12/02 23:15:30;;;;;;;24.63;17.20;;;4.30;99.90;;;;;;5054342;28;20956;-60
2022/12/02 23:17:58;;;;;;;23.37;16.20;;;4.30;99.90;;;;;;5053886;28;20475;-60
2022/12/02 23:20:26;;;;;;;22.90;14.23;;;4.30;99.90;;;;;;5054194;28;20503;-60
2022/12/02 23:22:54;;;;;;;26.70;18.87;;;4.20;99.90;;;;;;5053945;28;20507;-60
2022/12/02 23:25:21;;;;;;;25.47;18.50;;;4.20;99.90;;;;;;5053555;28;20489;-60
2022/12/02 23:27:49;;;;;;;23.17;16.10;;;4.20;99.90;;;;;;5053637;28;20488;-60
2022/12/02 23:30:17;;;;;;;23.83;17.43;;;4.20;99.90;;;;;;5053839;28;20456;-60
2022/12/02 23:32:44;;;;;;;26.40;16.67;;;4.20;99.90;;;;;;5053632;28;20453;-60
2022/12/02 23:35:12;;;;;;;21.80;17.10;;;4.20;99.90;;;;;;5053222;28;20464;-60
2022/12/02 23:37:41;;;;;;;23.80;17.80;;;4.10;99.90;;;;;;5053977;28;20512;-59
2022/12/02 23:40:10;;;;;;;26.03;17.83;;;4.10;99.90;;;;;;5053759;28;20441;-60
2022/12/02 23:42:38;;;;;;;22.10;16.63;;;4.10;99.90;;;;;;5053557;28;20449;-59
2022/12/02 23:45:06;;;;;;;25.03;18.73;;;4.00;99.90;;;;;;5053863;28;20505;-59
2022/12/02 23:47:34;;;;;;;25.63;17.80;;;3.90;99.90;;;;;;5053664;28;20551;-60
2022/12/02 23:50:01;;;;;;;26.60;16.00;;;4.00;99.90;;;;;;5053564;28;20495;-60
2022/12/02 23:52:29;;;;;;;24.20;17.67;;;3.90;99.90;;;;;;5053620;28;20456;-60
2022/12/02 23:54:57;;;;;;;27.97;15.83;;;3.90;99.90;;;;;;5053520;28;20463;-60
2022/12/02 23:57:25;;;;;;;23.10;16.83;;;3.80;99.90;;;;;;5053584;28;20476;-60
2022/12/02 23:59:52;;;;;;;24.77;17.00;;;3.70;99.90;;;;;;5053721;28;20445;-60
